Time;durP1;ratioP1;P1;durP2;ratioP2;P2;SDS_P1;SDS_P2;PMS_P1;PMS_P2;Temp;Humidity;BMP_temperature;BMP_pressure;BME280_temperature;BME280_humidity;BME280_pressure;Samples;Min_cycle;Max_cycle;Signal;HPM_P1;HPM_P2
2021/12/22 00:01:19;;;;;;;17.83;12.03;;;;;;;-2.35;100.00;95222.94;4954231;28;20288;-72
2021/12/22 00:03:47;;;;;;;17.27;11.03;;;;;;;-2.31;100.00;95225.66;4951532;29;20638;-72
2021/12/22 00:06:30;;;;;;;16.13;11.20;;;;;;;-2.52;100.00;95221.63;4950095;29;20194;-72
2021/12/22 00:08:55;;;;;;;22.47;12.33;;;;;;;-2.57;100.00;95226.53;4949960;29;20208;-72
2021/12/22 00:11:40;;;;;;;16.80;11.53;;;;;;;-2.73;100.00;95218.72;4952262;29;20299;-72
2021/12/22 00:14:05;;;;;;;15.73;11.50;;;;;;;-2.61;100.00;95217.69;4951609;29;20231;-72
2021/12/22 00:16:50;;;;;;;14.63;11.20;;;;;;;-2.56;100.00;95228.06;4945692;29;20225;-72
2021/12/22 00:19:15;;;;;;;17.63;11.37;;;;;;;-2.55;100.00;95226.94;4953002;28;20657;-72
2021/12/22 00:21:59;;;;;;;14.70;10.83;;;;;;;-3.01;100.00;95209.59;4952592;28;20380;-72
2021/12/22 00:24:25;;;;;;;18.03;11.07;;;;;;;-3.04;100.00;95229.03;4949141;28;20661;-72
2021/12/22 00:26:52;;;;;;;13.87;10.90;;;;;;;-3.18;100.00;95232.28;4939222;29;20190;-72
2021/12/22 00:29:18;;;;;;;15.17;11.60;;;;;;;-3.33;100.00;95230.53;4950936;29;20222;-72
2021/12/22 00:32:11;;;;;;;14.07;10.53;;;;;;;-3.23;100.00;95234.47;4944661;28;20247;-72
2021/12/22 00:34:46;;;;;;;15.30;11.10;;;;;;;-3.09;100.00;95232.00;4932541;29;20288;-72
2021/12/22 00:37:32;;;;;;;16.03;11.43;;;;;;;-3.26;100.00;95232.53;4934549;29;20241;-72
2021/12/22 00:39:58;;;;;;;18.43;10.93;;;;;;;-3.35;100.00;95238.16;4952132;29;20274;-72
2021/12/22 00:42:43;;;;;;;16.13;10.80;;;;;;;-3.19;100.00;95246.75;4951140;29;20730;-72
2021/12/22 00:45:10;;;;;;;14.57;10.93;;;;;;;-3.14;100.00;95235.00;4950991;28;20194;-72
2021/12/22 00:47:55;;;;;;;14.10;10.47;;;;;;;-3.39;100.00;95231.22;4950691;28;20564;-72
2021/12/22 00:50:22;;;;;;;16.00;11.90;;;;;;;-3.31;100.00;95232.84;4951686;28;20300;-72
2021/12/22 00:53:06;;;;;;;16.00;9.37;;;;;;;-3.38;100.00;95227.41;4957157;28;20272;-72
2021/12/22 00:55:32;;;;;;;14.87;11.17;;;;;;;-3.39;100.00;95223.97;4955860;28;20288;-72
2021/12/22 00:57:58;;;;;;;16.43;11.33;;;;;;;-3.19;100.00;95241.41;4951811;28;20201;-72
2021/12/22 01:00:26;;;;;;;18.00;11.53;;;;;;;-3.11;100.00;95229.69;4949943;28;20281;-72
2021/12/22 01:03:11;;;;;;;16.97;11.47;;;;;;;-2.94;100.00;95234.50;4945876;29;20226;-73
2021/12/22 01:05:36;;;;;;;14.83;11.23;;;;;;;-3.05;100.00;95230.91;4933993;29;20211;-72
2021/12/22 01:08:21;;;;;;;16.63;11.80;;;;;;;-3.15;100.00;95238.78;4948259;29;20307;-73
2021/12/22 01:10:47;;;;;;;19.03;11.87;;;;;;;-3.56;100.00;95251.16;4951813;28;20213;-72
2021/12/22 01:13:31;;;;;;;14.87;11.60;;;;;;;-3.31;100.00;95233.59;4952608;29;20605;-72
2021/12/22 01:15:56;;;;;;;16.20;11.80;;;;;;;-3.39;100.00;95248.00;4950702;28;20276;-72
2021/12/22 01:18:42;;;;;;;17.07;11.80;;;;;;;-3.45;100.00;95251.34;4951871;29;20208;-72
2021/12/22 01:21:18;;;;;;;18.90;13.23;;;;;;;-3.60;100.00;95258.38;4950939;28;20217;-72
2021/12/22 01:24:13;;;;;;;19.83;12.23;;;;;;;-3.65;100.00;95265.91;4950045;28;20201;-72
2021/12/22 01:26:45;;;;;;;16.53;12.03;;;;;;;-3.57;100.00;95267.53;4963744;28;20197;-72
2021/12/22 01:29:30;;;;;;;18.13;11.77;;;;;;;-3.53;100.00;95269.16;4958226;28;20207;-72
2021/12/22 01:31:57;;;;;;;18.20;11.43;;;;;;;-3.67;100.00;95268.94;4959581;28;20267;-72
2021/12/22 01:34:24;;;;;;;22.53;12.90;;;;;;;-3.76;100.00;95273.72;4958505;28;20222;-72
2021/12/22 01:36:52;;;;;;;17.47;12.50;;;;;;;-3.76;100.00;95271.84;4932163;29;20202;-71
2021/12/22 01:39:18;;;;;;;15.70;11.23;;;;;;;-4.14;100.00;95271.94;4932840;29;20190;-71
2021/12/22 01:41:46;;;;;;;14.10;11.50;;;;;;;-4.36;100.00;95274.59;4947921;28;20239;-72
2021/12/22 01:44:46;;;;;;;18.33;11.63;;;;;;;-4.46;100.00;95269.84;4955053;28;20204;-72
2021/12/22 01:50:28;;;;;;;18.07;11.47;;;;;;;-3.95;100.00;95268.44;4950662;29;20765;-72
2021/12/22 01:52:54;;;;;;;16.33;11.60;;;;;;;-3.87;100.00;95267.47;4945149;29;20276;-71
2021/12/22 01:55:38;;;;;;;14.17;11.30;;;;;;;-3.89;100.00;95277.72;4945632;28;20245;-71
2021/12/22 01:58:11;;;;;;;14.97;11.07;;;;;;;-3.87;100.00;95275.47;4949686;29;20617;-71
2021/12/22 02:00:55;;;;;;;16.40;10.87;;;;;;;-3.97;100.00;95282.16;4954823;29;20272;-71
2021/12/22 02:03:21;;;;;;;16.60;10.93;;;;;;;-3.90;100.00;95268.94;4928854;29;20604;-71
2021/12/22 02:05:46;;;;;;;19.97;12.27;;;;;;;-4.03;100.00;95272.13;4918576;29;20198;-71
2021/12/22 02:08:14;;;;;;;19.63;12.53;;;;;;;-4.43;100.00;95267.22;4937598;29;20205;-72
2021/12/22 02:10:46;;;;;;;15.57;10.90;;;;;;;-4.53;100.00;95267.78;4949455;29;20201;-72
2021/12/22 02:13:16;;;;;;;18.20;11.20;;;;;;;-4.37;100.00;95259.72;4954864;28;20237;-73
2021/12/22 02:16:07;;;;;;;17.13;12.23;;;;;;;-4.18;100.00;95263.13;4964670;28;20203;-72
2021/12/22 02:18:38;;;;;;;18.97;12.77;;;;;;;-4.15;100.00;95259.75;4961777;28;20196;-73
2021/12/22 02:21:05;;;;;;;15.77;11.57;;;;;;;-4.11;100.00;95259.81;4964783;28;20687;-72
2021/12/22 02:23:32;;;;;;;17.50;11.53;;;;;;;-4.04;100.00;95257.25;4958684;28;20958;-72
2021/12/22 02:26:05;;;;;;;14.30;11.17;;;;;;;-4.38;100.00;95253.63;4973600;28;20193;-72
2021/12/22 02:28:34;;;;;;;17.33;11.97;;;;;;;-4.53;100.00;95245.72;4935625;29;20616;-72
2021/12/22 02:31:00;;;;;;;14.43;10.53;;;;;;;-4.39;100.00;95256.63;4935412;29;20334;-73
2021/12/22 02:33:36;;;;;;;15.17;11.27;;;;;;;-4.30;100.00;95263.28;4936950;29;20684;-73
2021/12/22 02:38:42;;;;;;;17.30;11.77;;;;;;;-4.19;100.00;95258.16;4951353;28;20194;-72
2021/12/22 02:41:12;;;;;;;19.87;11.67;;;;;;;-4.01;100.00;95267.22;4953808;28;20642;-72
2021/12/22 02:43:53;;;;;;;15.57;11.40;;;;;;;-4.14;100.00;95263.94;4955846;28;20556;-72
2021/12/22 02:46:23;;;;;;;16.00;11.87;;;;;;;-4.47;100.00;95257.63;4953192;29;20193;-73
2021/12/22 02:48:49;;;;;;;17.57;11.90;;;;;;;-4.49;100.00;95262.53;4952361;28;20194;-72
2021/12/22 02:51:15;;;;;;;19.40;11.67;;;;;;;-4.52;100.00;95268.56;4953449;28;20221;-72
2021/12/22 02:53:51;;;;;;;15.63;10.90;;;;;;;-4.59;100.00;95273.75;4968343;28;20217;-72
2021/12/22 03:04:01;;;;;;;16.27;11.53;;;;;;;-4.29;100.00;95256.03;4953911;28;20186;-72
2021/12/22 03:06:34;;;;;;;15.77;12.17;;;;;;;-4.57;100.00;95266.19;4935462;28;20225;-72
2021/12/22 03:09:14;;;;;;;19.13;12.17;;;;;;;-4.57;100.00;95264.31;4959383;28;20273;-73
2021/12/22 03:11:39;;;;;;;18.93;12.60;;;;;;;-4.31;100.00;95287.63;4962135;28;20227;-72
2021/12/22 03:14:05;;;;;;;20.47;12.80;;;;;;;-4.22;100.00;95258.84;4950849;29;20206;-72
2021/12/22 03:16:30;;;;;;;17.93;13.10;;;;;;;-4.23;100.00;95251.97;4938380;29;20186;-72
2021/12/22 03:18:57;;;;;;;20.83;13.07;;;;;;;-4.11;100.00;95257.13;4953420;28;20258;-72
2021/12/22 03:21:23;;;;;;;20.63;13.13;;;;;;;-4.57;100.00;95255.53;4952995;28;20225;-73
2021/12/22 03:23:53;;;;;;;19.37;12.67;;;;;;;-4.54;100.00;95260.94;4949048;28;20193;-73
2021/12/22 03:26:21;;;;;;;18.57;13.17;;;;;;;-4.48;100.00;95259.50;4951855;29;20284;-73
2021/12/22 03:28:48;;;;;;;18.63;12.27;;;;;;;-4.50;100.00;95255.66;4952279;29;20190;-72
2021/12/22 03:31:14;;;;;;;16.13;11.77;;;;;;;-4.73;100.00;95258.28;4951730;28;20376;-72
2021/12/22 03:33:41;;;;;;;17.07;12.13;;;;;;;-4.88;100.00;95264.44;4953232;28;20241;-72
2021/12/22 03:36:08;;;;;;;16.60;11.27;;;;;;;-4.76;100.00;95263.53;4944494;28;20210;-72
2021/12/22 03:38:35;;;;;;;16.60;12.80;;;;;;;-4.80;100.00;95265.38;4947576;29;20198;-72
2021/12/22 03:41:01;;;;;;;16.90;11.87;;;;;;;-4.84;100.00;95257.31;4967424;28;20229;-72
2021/12/22 03:43:27;;;;;;;17.73;12.17;;;;;;;-4.87;100.00;95259.91;4964338;28;20671;-72
2021/12/22 03:45:53;;;;;;;17.20;10.87;;;;;;;-4.84;100.00;95264.50;4947792;29;20194;-72
2021/12/22 03:48:19;;;;;;;15.10;11.83;;;;;;;-4.86;100.00;95259.53;4952695;28;20202;-72
2021/12/22 03:50:45;;;;;;;18.30;12.00;;;;;;;-4.99;100.00;95261.56;4950882;28;20200;-73
2021/12/22 03:53:11;;;;;;;21.17;13.00;;;;;;;-4.75;100.00;95257.09;4959355;28;20911;-72
2021/12/22 03:55:37;;;;;;;17.30;12.57;;;;;;;-4.54;100.00;95250.28;4953232;28;20679;-72
2021/12/22 03:58:04;;;;;;;17.70;11.93;;;;;;;-4.74;100.00;95258.63;4951469;29;20193;-72
2021/12/22 04:00:30;;;;;;;18.57;12.60;;;;;;;-5.01;100.00;95258.50;4949215;28;20739;-72
2021/12/22 04:02:57;;;;;;;19.87;13.23;;;;;;;-5.02;100.00;95256.94;4952368;28;20574;-72
2021/12/22 04:05:23;;;;;;;22.30;13.27;;;;;;;-4.78;100.00;95271.09;4950060;29;20652;-73
2021/12/22 04:07:49;;;;;;;17.47;12.57;;;;;;;-4.76;100.00;95266.19;4938326;29;20905;-72
2021/12/22 04:10:22;;;;;;;19.27;12.50;;;;;;;-4.96;100.00;95262.75;4952541;28;20880;-72
2021/12/22 04:12:54;;;;;;;16.53;11.37;;;;;;;-5.12;100.00;95262.81;4950328;28;20677;-73
2021/12/22 04:15:22;;;;;;;20.00;13.00;;;;;;;-5.34;100.00;95260.03;4950561;28;20569;-72
2021/12/22 04:17:48;;;;;;;17.23;12.53;;;;;;;-5.33;100.00;95270.31;4947679;29;20208;-72
2021/12/22 04:20:14;;;;;;;20.67;14.13;;;;;;;-5.09;100.00;95264.03;4952353;28;20206;-73
2021/12/22 04:22:40;;;;;;;16.83;12.13;;;;;;;-5.05;100.00;95265.63;4934863;28;20654;-72
2021/12/22 04:25:08;;;;;;;16.50;11.50;;;;;;;-5.29;100.00;95259.75;4957720;28;20260;-72
2021/12/22 04:27:34;;;;;;;20.00;13.00;;;;;;;-5.41;100.00;95263.31;4951173;29;20185;-72
2021/12/22 04:29:59;;;;;;;19.70;12.73;;;;;;;-5.53;100.00;95265.31;4952296;28;20709;-72
2021/12/22 04:32:25;;;;;;;18.97;12.13;;;;;;;-5.51;100.00;95261.19;4927952;29;20670;-72
2021/12/22 04:34:51;;;;;;;21.37;12.87;;;;;;;-5.66;100.00;95266.53;4952624;28;20703;-72
2021/12/22 04:37:17;;;;;;;21.90;14.13;;;;;;;-5.64;100.00;95266.97;4959055;28;20726;-72
2021/12/22 04:39:42;;;;;;;21.10;14.17;;;;;;;-5.92;100.00;95279.63;4963480;28;20649;-72
2021/12/22 04:42:08;;;;;;;22.03;14.70;;;;;;;-5.91;100.00;95281.16;4969510;28;20683;-72
2021/12/22 04:44:34;;;;;;;18.87;13.40;;;;;;;-5.87;100.00;95284.69;4941524;28;20884;-72
2021/12/22 04:47:00;;;;;;;23.10;14.23;;;;;;;-5.51;100.00;95277.16;4939796;29;20942;-72
2021/12/22 04:49:26;;;;;;;22.63;13.27;;;;;;;-5.64;100.00;95274.94;4951460;29;20578;-72
2021/12/22 04:51:54;;;;;;;22.47;14.63;;;;;;;-5.57;100.00;95267.91;4953828;28;20231;-72
2021/12/22 04:56:53;;;;;;;17.90;12.73;;;;;;;-5.10;100.00;95276.56;4968925;28;20196;-73
2021/12/22 04:59:18;;;;;;;16.83;12.23;;;;;;;-5.06;100.00;95273.97;4962438;28;20194;-72
2021/12/22 05:01:44;;;;;;;17.10;12.13;;;;;;;-5.24;100.00;95275.47;4941682;28;20711;-73
2021/12/22 05:04:10;;;;;;;19.17;12.40;;;;;;;-5.18;100.00;95284.72;4952473;28;20269;-72
2021/12/22 05:06:36;;;;;;;16.60;12.10;;;;;;;-5.17;100.00;95287.03;4940997;28;20206;-72
2021/12/22 05:09:05;;;;;;;20.43;13.17;;;;;;;-5.37;100.00;95284.69;4948937;28;20194;-73
2021/12/22 05:11:31;;;;;;;18.53;12.53;;;;;;;-5.23;100.00;95282.34;4946979;28;20237;-72
2021/12/22 05:13:57;;;;;;;19.03;11.87;;;;;;;-5.38;100.00;95272.50;4959484;28;20241;-73
2021/12/22 05:16:23;;;;;;;19.60;13.37;;;;;;;-5.24;100.00;95292.22;4951316;28;20229;-73
2021/12/22 05:21:22;;;;;;;18.87;13.60;;;;;;;-5.24;100.00;95284.22;4955213;28;20280;-73
2021/12/22 05:23:52;;;;;;;17.77;12.40;;;;;;;-5.42;100.00;95291.06;4955151;28;20190;-73
2021/12/22 05:26:18;;;;;;;17.60;13.20;;;;;;;-5.69;100.00;95285.84;4974556;28;20271;-73
2021/12/22 05:28:45;;;;;;;17.97;13.10;;;;;;;-5.27;100.00;95287.59;4965237;28;20202;-73
2021/12/22 05:31:11;;;;;;;19.57;13.50;;;;;;;-5.52;100.00;95277.50;4948585;28;20290;-74
2021/12/22 05:33:37;;;;;;;19.57;13.00;;;;;;;-5.10;100.00;95281.09;4960668;28;20224;-74
2021/12/22 05:36:03;;;;;;;20.53;13.60;;;;;;;-5.05;100.00;95284.25;4963143;28;20201;-73
2021/12/22 05:38:29;;;;;;;22.73;13.17;;;;;;;-5.03;100.00;95283.91;4951230;29;20202;-73
2021/12/22 05:40:54;;;;;;;19.37;13.33;;;;;;;-4.74;100.00;95293.25;4954826;28;20205;-73
2021/12/22 05:43:20;;;;;;;16.87;12.13;;;;;;;-4.81;100.00;95287.78;4954624;28;20198;-73
2021/12/22 05:45:46;;;;;;;19.47;13.23;;;;;;;-4.76;100.00;95288.28;4950452;29;20206;-73
2021/12/22 05:48:11;;;;;;;18.87;13.43;;;;;;;-4.66;100.00;95286.94;4942507;29;20288;-73
2021/12/22 05:50:37;;;;;;;18.67;12.90;;;;;;;-5.02;100.00;95288.09;4953729;28;20269;-73
2021/12/22 05:53:03;;;;;;;17.63;12.13;;;;;;;-4.71;100.00;95281.88;4962748;28;20197;-73
2021/12/22 05:55:29;;;;;;;19.87;14.37;;;;;;;-4.80;100.00;95287.44;4969659;28;20201;-73
2021/12/22 05:57:55;;;;;;;23.30;15.77;;;;;;;-4.60;100.00;95280.22;4974398;28;20188;-73
2021/12/22 06:00:22;;;;;;;29.37;17.27;;;;;;;-4.46;100.00;95283.16;4955898;28;20208;-73
2021/12/22 06:02:48;;;;;;;31.07;18.10;;;;;;;-4.58;100.00;95275.31;4951912;28;20245;-72
2021/12/22 06:05:13;;;;;;;21.50;13.63;;;;;;;-4.60;100.00;95285.56;4935803;29;20182;-73
2021/12/22 06:07:39;;;;;;;22.90;15.00;;;;;;;-4.64;100.00;95268.72;4952977;28;20194;-73
2021/12/22 06:10:06;;;;;;;21.63;14.47;;;;;;;-4.59;100.00;95274.53;4953333;28;20193;-72
2021/12/22 06:12:31;;;;;;;23.17;15.07;;;;;;;-4.64;100.00;95285.47;4954482;28;20237;-72
2021/12/22 06:14:57;;;;;;;27.67;17.13;;;;;;;-4.56;100.00;95283.69;4937486;29;20213;-72
2021/12/22 06:17:23;;;;;;;24.57;16.83;;;;;;;-4.43;100.00;95288.53;4936300;28;20198;-72
2021/12/22 06:19:48;;;;;;;23.63;17.53;;;;;;;-4.43;100.00;95293.88;4955892;28;20204;-72
2021/12/22 06:22:14;;;;;;;20.97;15.30;;;;;;;-4.39;100.00;95292.06;4957140;28;20217;-72
2021/12/22 06:24:40;;;;;;;22.20;15.10;;;;;;;-4.41;100.00;95286.28;4963431;28;20225;-72
2021/12/22 06:27:05;;;;;;;22.13;15.53;;;;;;;-4.45;100.00;95279.38;4954133;28;20198;-72
2021/12/22 06:29:31;;;;;;;25.80;16.17;;;;;;;-4.30;100.00;95275.84;4950182;28;20201;-72
2021/12/22 06:31:57;;;;;;;23.80;16.60;;;;;;;-4.31;100.00;95282.31;4952328;28;20297;-72
2021/12/22 06:34:22;;;;;;;25.50;17.37;;;;;;;-4.03;100.00;95256.13;4953627;28;20699;-72
2021/12/22 06:36:48;;;;;;;20.90;15.97;;;;;;;-4.13;100.00;95262.84;4953687;28;20728;-72
2021/12/22 06:39:15;;;;;;;21.50;14.93;;;;;;;-4.30;100.00;95267.84;4967821;28;20667;-72
2021/12/22 06:41:41;;;;;;;23.87;15.90;;;;;;;-4.22;100.00;95261.50;4953962;28;20304;-72
2021/12/22 06:44:07;;;;;;;22.40;15.70;;;;;;;-4.48;100.00;95253.44;4954374;28;20551;-72
2021/12/22 06:46:32;;;;;;;23.93;16.20;;;;;;;-4.57;100.00;95269.63;4944960;28;20551;-72
2021/12/22 06:48:58;;;;;;;25.90;15.73;;;;;;;-4.48;100.00;95267.50;4952613;29;20906;-72
2021/12/22 06:51:24;;;;;;;20.10;16.27;;;;;;;-4.54;100.00;95262.81;4954291;28;20585;-73
2021/12/22 06:53:49;;;;;;;21.87;15.53;;;;;;;-4.52;100.00;95271.22;4940922;29;20440;-73
2021/12/22 06:56:15;;;;;;;22.23;15.63;;;;;;;-4.58;100.00;95275.31;4959642;28;20678;-73
2021/12/22 06:58:41;;;;;;;28.10;18.13;;;;;;;-4.51;100.00;95276.22;4964087;28;20666;-72
2021/12/22 07:01:07;;;;;;;26.47;17.97;;;;;;;-4.61;100.00;95276.78;4965993;28;20214;-73
2021/12/22 07:03:33;;;;;;;33.23;21.67;;;;;;;-4.73;100.00;95284.91;4953816;28;20549;-73
2021/12/22 07:05:58;;;;;;;24.90;17.20;;;;;;;-4.84;100.00;95277.84;4947679;28;20242;-72
2021/12/22 07:08:24;;;;;;;33.73;20.40;;;;;;;-4.60;100.00;95286.31;4933287;29;20265;-72
2021/12/22 07:10:50;;;;;;;30.40;19.47;;;;;;;-4.57;100.00;95285.63;4944117;28;20300;-73
2021/12/22 07:13:16;;;;;;;23.07;16.77;;;;;;;-4.71;100.00;95289.88;4951822;29;20253;-72
2021/12/22 07:15:45;;;;;;;21.67;14.90;;;;;;;-4.63;100.00;95294.25;4943241;28;20233;-72
2021/12/22 07:18:12;;;;;;;36.33;18.13;;;;;;;-4.70;100.00;95294.09;4934301;29;20739;-72
2021/12/22 07:20:38;;;;;;;29.90;18.07;;;;;;;-4.61;100.00;95298.09;4958999;28;20197;-72
2021/12/22 07:23:04;;;;;;;27.47;17.67;;;;;;;-4.46;100.00;95296.50;4954471;28;20205;-72
2021/12/22 07:25:30;;;;;;;28.27;18.67;;;;;;;-4.24;100.00;95285.84;4968948;28;20193;-73
2021/12/22 07:27:56;;;;;;;24.67;17.47;;;;;;;-4.22;100.00;95278.28;4952161;28;20189;-72
2021/12/22 07:30:22;;;;;;;21.27;15.17;;;;;;;-4.23;100.00;95276.75;4966868;28;20303;-73
2021/12/22 07:32:47;;;;;;;23.30;15.93;;;;;;;-4.26;100.00;95280.09;4951506;28;20236;-72
2021/12/22 07:35:35;;;;;;;22.77;16.37;;;;;;;-4.19;100.00;95276.81;4951117;29;20300;-72
2021/12/22 07:38:10;;;;;;;22.93;16.63;;;;;;;-4.19;100.00;95285.56;4954949;28;20734;-72
2021/12/22 07:40:36;;;;;;;25.03;16.57;;;;;;;-4.29;100.00;95285.38;4954068;28;20224;-72
2021/12/22 07:43:02;;;;;;;29.23;20.20;;;;;;;-4.22;100.00;95291.59;4956094;28;20523;-72
2021/12/22 07:45:28;;;;;;;25.27;16.80;;;;;;;-4.47;100.00;95300.25;4951843;28;20276;-72
2021/12/22 07:47:54;;;;;;;24.70;17.87;;;;;;;-4.33;100.00;95296.00;4952945;28;20272;-73
2021/12/22 07:50:19;;;;;;;24.80;18.60;;;;;;;-4.46;100.00;95281.25;4952903;28;20190;-73
2021/12/22 07:52:45;;;;;;;25.57;17.10;;;;;;;-4.57;100.00;95284.84;4959578;28;20223;-73
2021/12/22 07:55:11;;;;;;;25.17;16.90;;;;;;;-4.63;100.00;95287.00;4956199;28;20229;-72
2021/12/22 07:57:36;;;;;;;26.90;18.53;;;;;;;-4.73;100.00;95276.16;4968866;28;20193;-72
2021/12/22 08:00:05;;;;;;;24.20;17.20;;;;;;;-4.65;100.00;95286.63;4956379;28;20193;-72
2021/12/22 08:02:38;;;;;;;29.83;19.97;;;;;;;-4.29;100.00;95293.34;4950525;28;20699;-72
2021/12/22 08:05:04;;;;;;;37.53;20.13;;;;;;;-4.15;100.00;95301.63;4933969;29;20245;-73
2021/12/22 08:07:30;;;;;;;27.87;19.50;;;;;;;-4.20;100.00;95291.25;4950324;28;20206;-73
2021/12/22 08:09:55;;;;;;;31.97;20.50;;;;;;;-4.04;100.00;95291.94;4956053;28;20201;-73
2021/12/22 08:12:21;;;;;;;27.53;20.03;;;;;;;-4.06;100.00;95281.63;4963453;28;20291;-73
2021/12/22 08:14:47;;;;;;;25.60;17.70;;;;;;;-3.98;100.00;95293.94;4946972;28;20301;-73
2021/12/22 08:17:13;;;;;;;25.03;17.40;;;;;;;-3.85;100.00;95305.97;4939817;29;20200;-73
2021/12/22 08:19:41;;;;;;;34.87;21.10;;;;;;;-3.74;100.00;95300.84;4950739;28;20194;-73
2021/12/22 08:22:07;;;;;;;35.10;20.13;;;;;;;-3.50;100.00;95305.81;4956131;28;20237;-73
2021/12/22 08:24:33;;;;;;;29.83;18.03;;;;;;;-3.42;100.00;95312.00;4961766;28;20236;-74
2021/12/22 08:26:59;;;;;;;35.27;21.33;;;;;;;-3.54;100.00;95317.53;4963937;28;20288;-73
2021/12/22 08:29:25;;;;;;;28.30;20.30;;;;;;;-3.43;100.00;95307.81;4951491;29;20230;-73
2021/12/22 08:31:50;;;;;;;29.50;19.60;;;;;;;-3.51;100.00;95306.16;4950649;28;20218;-73
2021/12/22 08:34:23;;;;;;;29.07;20.23;;;;;;;-3.74;100.00;95316.84;4950787;28;20304;-73
2021/12/22 08:39:33;;;;;;;24.93;18.50;;;;;;;-3.82;100.00;95313.28;4938956;29;20198;-73
2021/12/22 08:41:59;;;;;;;28.70;19.77;;;;;;;-3.67;100.00;95316.19;4945557;28;20268;-73
2021/12/22 08:44:26;;;;;;;40.53;20.03;;;;;;;-3.81;100.00;95301.50;4952913;28;20190;-73
2021/12/22 08:46:52;;;;;;;33.53;21.33;;;;;;;-3.89;100.00;95296.38;4958702;28;20221;-73
2021/12/22 08:49:20;;;;;;;28.77;19.43;;;;;;;-3.74;100.00;95304.28;4952955;28;20193;-74
2021/12/22 08:51:47;;;;;;;26.60;19.43;;;;;;;-3.56;100.00;95312.56;4953570;28;20336;-73
2021/12/22 08:54:13;;;;;;;28.27;18.47;;;;;;;-3.69;100.00;95313.88;4966399;28;20222;-73
2021/12/22 08:56:39;;;;;;;25.53;16.60;;;;;;;-3.80;100.00;95320.91;4957730;28;20212;-73
2021/12/22 08:59:06;;;;;;;26.07;17.57;;;;;;;-3.61;100.00;95328.13;4955217;29;20636;-73
2021/12/22 09:01:32;;;;;;;22.80;16.90;;;;;;;-3.30;100.00;95328.63;4943749;29;20213;-73
2021/12/22 09:03:58;;;;;;;26.90;17.33;;;;;;;-3.36;100.00;95321.28;4956634;28;20190;-73
2021/12/22 09:06:24;;;;;;;21.30;16.40;;;;;;;-3.07;100.00;95326.66;4945529;29;20293;-74
2021/12/22 09:08:51;;;;;;;21.43;16.07;;;;;;;-2.78;100.00;95328.59;4935586;29;20206;-73
2021/12/22 09:11:17;;;;;;;18.37;14.40;;;;;;;-2.72;100.00;95331.75;4970375;28;20283;-73
2021/12/22 09:13:42;;;;;;;20.37;14.83;;;;;;;-2.64;100.00;95336.81;4954731;29;20216;-74
2021/12/22 09:16:09;;;;;;;19.47;14.37;;;;;;;-2.48;100.00;95342.75;4948712;28;20290;-73
2021/12/22 09:18:36;;;;;;;21.27;14.80;;;;;;;-2.62;100.00;95326.53;4952107;29;20209;-73
2021/12/22 09:21:03;;;;;;;18.97;14.37;;;;;;;-2.66;100.00;95339.06;4954316;28;20699;-73
2021/12/22 09:23:29;;;;;;;20.43;14.23;;;;;;;-2.76;100.00;95342.38;4962934;28;20604;-73
2021/12/22 09:25:54;;;;;;;20.70;14.50;;;;;;;-2.67;100.00;95345.56;4950352;29;20217;-73
2021/12/22 09:28:20;;;;;;;19.90;14.57;;;;;;;-2.60;100.00;95342.97;4936628;29;20191;-74
2021/12/22 09:30:46;;;;;;;19.50;14.57;;;;;;;-2.28;100.00;95355.97;4936367;29;20195;-73
2021/12/22 09:33:14;;;;;;;20.73;15.40;;;;;;;-2.24;100.00;95349.53;4940806;29;20688;-73
2021/12/22 09:35:42;;;;;;;18.80;14.43;;;;;;;-2.51;100.00;95327.44;4953215;29;20201;-73
2021/12/22 09:38:08;;;;;;;19.27;14.53;;;;;;;-2.50;100.00;95334.34;4954568;29;20641;-74
2021/12/22 09:40:35;;;;;;;23.03;15.27;;;;;;;-2.43;100.00;95327.53;4955010;28;20205;-73
2021/12/22 09:43:01;;;;;;;31.63;19.23;;;;;;;-2.73;100.00;95325.63;4938272;29;20201;-73
2021/12/22 09:45:27;;;;;;;32.33;18.23;;;;;;;-2.64;100.00;95339.50;4951103;29;20560;-73
2021/12/22 09:48:49;;;;;;;27.63;15.37;;;;;;;-2.71;100.00;95338.63;4953803;29;20316;-73
2021/12/22 09:53:25;;;;;;;21.97;14.30;;;;;;;-2.23;100.00;95337.72;4960332;28;20733;-74
2021/12/22 09:55:52;;;;;;;18.60;13.97;;;;;;;-2.03;100.00;95330.28;4934548;29;20269;-73
2021/12/22 09:58:18;;;;;;;21.57;14.30;;;;;;;-2.14;100.00;95335.53;4935018;29;20186;-74
2021/12/22 10:00:45;;;;;;;23.03;15.33;;;;;;;-2.02;100.00;95319.19;4948938;29;20233;-73
2021/12/22 10:03:11;;;;;;;19.87;15.57;;;;;;;-1.81;100.00;95313.28;4955549;28;20206;-73
2021/12/22 10:05:39;;;;;;;23.77;14.10;;;;;;;-1.82;100.00;95307.19;4945346;28;20199;-73
2021/12/22 10:08:14;;;;;;;18.93;13.80;;;;;;;-1.64;100.00;95304.66;4960565;28;20288;-73
2021/12/22 10:10:53;;;;;;;20.03;14.40;;;;;;;-1.49;100.00;95303.63;4964285;28;20197;-73
2021/12/22 10:13:23;;;;;;;22.63;14.60;;;;;;;-1.70;100.00;95303.47;4958567;28;20679;-73
2021/12/22 10:15:49;;;;;;;26.87;14.43;;;;;;;-1.80;100.00;95307.56;4957799;28;20204;-73
2021/12/22 10:18:19;;;;;;;19.80;14.03;;;;;;;-2.02;100.00;95305.81;4954557;29;20278;-73
2021/12/22 10:20:48;;;;;;;20.37;15.07;;;;;;;-1.91;100.00;95308.63;4954177;28;20214;-73
2021/12/22 10:23:30;;;;;;;18.70;13.90;;;;;;;-1.63;100.00;95303.53;4954681;28;20264;-73
2021/12/22 10:26:03;;;;;;;27.50;14.67;;;;;;;-1.79;100.00;95290.38;4935431;29;20206;-73
2021/12/22 10:28:43;;;;;;;20.57;13.17;;;;;;;-1.79;100.00;95290.38;4934786;29;20538;-73
2021/12/22 10:31:09;;;;;;;20.00;15.03;;;;;;;-1.46;100.00;95276.13;4938299;29;20225;-73
2021/12/22 10:33:39;;;;;;;21.30;14.27;;;;;;;-1.62;100.00;95291.69;4952770;28;20222;-73
2021/12/22 10:36:17;;;;;;;18.10;13.70;;;;;;;-1.54;100.00;95279.88;4949691;28;20278;-74
2021/12/22 10:38:55;;;;;;;19.87;14.73;;;;;;;-1.12;100.00;95280.19;4949570;28;20209;-74
2021/12/22 10:41:28;;;;;;;26.00;15.10;;;;;;;-0.91;100.00;95277.66;4952665;28;20214;-74
2021/12/22 10:43:54;;;;;;;20.07;14.53;;;;;;;-0.92;100.00;95264.63;4954822;28;20194;-74
2021/12/22 10:46:27;;;;;;;21.80;14.60;;;;;;;0.01;100.00;95262.69;4935200;29;20241;-74
2021/12/22 10:49:23;;;;;;;18.33;14.10;;;;;;;0.03;100.00;95253.09;4951421;29;20198;-73
2021/12/22 10:52:00;;;;;;;20.07;12.60;;;;;;;2.41;98.42;95245.53;4957633;28;20248;-74
2021/12/22 10:54:38;;;;;;;20.63;12.60;;;;;;;1.11;86.89;95245.38;4955043;28;20245;-73
2021/12/22 10:57:12;;;;;;;20.83;14.13;;;;;;;-0.11;90.64;95244.25;4952758;28;20193;-73
2021/12/22 10:59:53;;;;;;;18.23;11.70;;;;;;;0.84;88.19;95247.75;4953478;28;20201;-74
2021/12/22 11:02:22;;;;;;;19.33;13.47;;;;;;;-0.06;88.66;95241.19;4949558;28;20229;-74
2021/12/22 11:04:49;;;;;;;19.83;15.03;;;;;;;-1.02;93.28;95244.69;4953461;28;20241;-73
2021/12/22 11:07:27;;;;;;;17.07;12.67;;;;;;;-1.25;97.06;95242.22;4931503;29;20265;-73
2021/12/22 11:09:53;;;;;;;19.20;13.53;;;;;;;-1.56;100.00;95236.66;4944775;29;20199;-73
2021/12/22 11:12:37;;;;;;;19.23;11.80;;;;;;;-1.77;99.66;95233.81;4960794;28;20233;-73
2021/12/22 11:15:03;;;;;;;17.57;12.47;;;;;;;-1.80;100.00;95229.19;4950367;28;20218;-73
2021/12/22 11:17:29;;;;;;;16.30;12.33;;;;;;;-1.39;100.00;95219.91;4951907;28;20193;-73
2021/12/22 11:20:04;;;;;;;19.87;13.23;;;;;;;-1.33;100.00;95215.78;4953313;28;20202;-73
2021/12/22 11:23:01;;;;;;;18.00;13.17;;;;;;;-1.13;100.00;95210.91;4960301;28;20297;-73
2021/12/22 11:25:30;;;;;;;19.47;13.10;;;;;;;-1.16;99.54;95208.97;4944443;28;20293;-73
2021/12/22 11:27:58;;;;;;;21.03;15.27;;;;;;;-1.05;97.68;95191.06;4945609;29;20225;-73
2021/12/22 11:30:26;;;;;;;17.47;12.93;;;;;;;-0.98;98.14;95191.84;4953653;28;20225;-73
2021/12/22 11:32:54;;;;;;;17.20;13.03;;;;;;;-0.92;96.63;95202.97;4951258;29;20309;-74
2021/12/22 11:35:21;;;;;;;17.50;12.10;;;;;;;-1.02;94.46;95196.44;4952248;28;20229;-73
2021/12/22 11:37:46;;;;;;;16.60;12.63;;;;;;;-1.07;94.24;95193.34;4951907;28;20236;-73
2021/12/22 11:40:17;;;;;;;17.03;12.90;;;;;;;-0.73;97.12;95197.31;4951568;29;20225;-73
2021/12/22 11:42:42;;;;;;;18.83;13.03;;;;;;;-0.88;94.59;95201.84;4952954;28;20699;-73